sensor_id;sensor_type;location;lat;lon;timestamp;P1;durP1;ratioP1;P2;durP2;ratioP2
2201;SDS011;1107;48.654;9.250;2023-03-04T00:01:32;57.92;;;26.75;;
2201;SDS011;1107;48.654;9.250;2023-03-04T00:03:59;57.55;;;27.15;;
2201;SDS011;1107;48.654;9.250;2023-03-04T00:06:26;57.35;;;26.15;;
2201;SDS011;1107;48.654;9.250;2023-03-04T00:08:53;63.10;;;27.85;;
2201;SDS011;1107;48.654;9.250;2023-03-04T00:11:20;49.83;;;26.73;;
2201;SDS011;1107;48.654;9.250;2023-03-04T00:13:47;52.33;;;28.60;;
2201;SDS011;1107;48.654;9.250;2023-03-04T00:16:16;79.47;;;25.58;;
2201;SDS011;1107;48.654;9.250;2023-03-04T00:18:43;55.92;;;24.75;;
2201;SDS011;1107;48.654;9.250;2023-03-04T00:21:10;76.00;;;27.38;;
2201;SDS011;1107;48.654;9.250;2023-03-04T00:23:37;51.30;;;25.17;;
2201;SDS011;1107;48.654;9.250;2023-03-04T00:26:05;59.47;;;30.40;;
2201;SDS011;1107;48.654;9.250;2023-03-04T00:28:33;81.60;;;28.15;;
2201;SDS011;1107;48.654;9.250;2023-03-04T00:31:00;60.22;;;29.98;;
2201;SDS011;1107;48.654;9.250;2023-03-04T00:33:28;54.40;;;26.52;;
2201;SDS011;1107;48.654;9.250;2023-03-04T00:35:55;50.85;;;25.08;;
2201;SDS011;1107;48.654;9.250;2023-03-04T00:38:22;70.28;;;32.63;;
2201;SDS011;1107;48.654;9.250;2023-03-04T00:40:49;50.23;;;26.73;;
2201;SDS011;1107;48.654;9.250;2023-03-04T00:43:16;56.88;;;27.63;;
2201;SDS011;1107;48.654;9.250;2023-03-04T00:45:43;52.70;;;26.55;;
2201;SDS011;1107;48.654;9.250;2023-03-04T00:48:10;53.17;;;24.98;;
2201;SDS011;1107;48.654;9.250;2023-03-04T00:50:40;53.17;;;25.38;;
2201;SDS011;1107;48.654;9.250;2023-03-04T00:53:07;49.47;;;24.17;;
2201;SDS011;1107;48.654;9.250;2023-03-04T00:55:34;46.45;;;23.15;;
2201;SDS011;1107;48.654;9.250;2023-03-04T00:58:01;62.10;;;24.17;;
2201;SDS011;1107;48.654;9.250;2023-03-04T01:00:28;52.35;;;25.00;;
2201;SDS011;1107;48.654;9.250;2023-03-04T01:02:55;46.97;;;23.95;;
2201;SDS011;1107;48.654;9.250;2023-03-04T01:05:22;47.70;;;23.45;;
2201;SDS011;1107;48.654;9.250;2023-03-04T01:07:50;53.45;;;23.60;;
2201;SDS011;1107;48.654;9.250;2023-03-04T01:10:17;42.92;;;23.25;;
2201;SDS011;1107;48.654;9.250;2023-03-04T01:12:44;55.05;;;24.65;;
2201;SDS011;1107;48.654;9.250;2023-03-04T01:15:12;52.55;;;24.70;;
2201;SDS011;1107;48.654;9.250;2023-03-04T01:17:39;45.88;;;23.52;;
2201;SDS011;1107;48.654;9.250;2023-03-04T01:20:07;43.78;;;23.48;;
2201;SDS011;1107;48.654;9.250;2023-03-04T01:22:35;54.13;;;23.25;;
2201;SDS011;1107;48.654;9.250;2023-03-04T01:25:04;46.28;;;22.30;;
2201;SDS011;1107;48.654;9.250;2023-03-04T01:27:32;42.13;;;21.27;;
2201;SDS011;1107;48.654;9.250;2023-03-04T01:29:59;49.65;;;22.33;;
2201;SDS011;1107;48.654;9.250;2023-03-04T01:32:26;51.33;;;22.92;;
2201;SDS011;1107;48.654;9.250;2023-03-04T01:34:53;43.70;;;21.05;;
2201;SDS011;1107;48.654;9.250;2023-03-04T01:37:20;43.50;;;22.58;;
2201;SDS011;1107;48.654;9.250;2023-03-04T01:39:47;56.63;;;23.00;;
2201;SDS011;1107;48.654;9.250;2023-03-04T01:42:15;59.00;;;24.10;;
2201;SDS011;1107;48.654;9.250;2023-03-04T01:44:44;50.15;;;21.75;;
2201;SDS011;1107;48.654;9.250;2023-03-04T01:47:12;45.03;;;22.05;;
2201;SDS011;1107;48.654;9.250;2023-03-04T01:49:40;50.22;;;22.00;;
2201;SDS011;1107;48.654;9.250;2023-03-04T01:52:09;56.72;;;23.25;;
2201;SDS011;1107;48.654;9.250;2023-03-04T01:54:38;43.60;;;21.45;;
2201;SDS011;1107;48.654;9.250;2023-03-04T01:57:06;50.42;;;22.85;;
2201;SDS011;1107;48.654;9.250;2023-03-04T01:59:43;49.63;;;21.30;;
2201;SDS011;1107;48.654;9.250;2023-03-04T02:02:10;37.45;;;20.25;;
2201;SDS011;1107;48.654;9.250;2023-03-04T02:04:38;42.28;;;20.33;;
2201;SDS011;1107;48.654;9.250;2023-03-04T02:07:07;33.95;;;19.42;;
2201;SDS011;1107;48.654;9.250;2023-03-04T02:09:34;45.90;;;21.42;;
2201;SDS011;1107;48.654;9.250;2023-03-04T02:12:02;44.28;;;22.25;;
2201;SDS011;1107;48.654;9.250;2023-03-04T02:14:30;42.60;;;21.35;;
2201;SDS011;1107;48.654;9.250;2023-03-04T02:16:57;47.15;;;21.40;;
2201;SDS011;1107;48.654;9.250;2023-03-04T02:19:31;51.45;;;21.77;;
2201;SDS011;1107;48.654;9.250;2023-03-04T02:22:06;56.17;;;23.45;;
2201;SDS011;1107;48.654;9.250;2023-03-04T02:24:34;47.53;;;21.00;;
2201;SDS011;1107;48.654;9.250;2023-03-04T02:27:05;46.95;;;22.10;;
2201;SDS011;1107;48.654;9.250;2023-03-04T02:29:32;45.22;;;21.02;;
2201;SDS011;1107;48.654;9.250;2023-03-04T02:31:59;44.60;;;19.73;;
2201;SDS011;1107;48.654;9.250;2023-03-04T02:34:27;37.05;;;18.88;;
2201;SDS011;1107;48.654;9.250;2023-03-04T02:36:56;43.95;;;19.08;;
2201;SDS011;1107;48.654;9.250;2023-03-04T02:39:26;45.67;;;20.85;;
2201;SDS011;1107;48.654;9.250;2023-03-04T02:41:56;42.45;;;19.88;;
2201;SDS011;1107;48.654;9.250;2023-03-04T02:44:26;49.55;;;19.83;;
2201;SDS011;1107;48.654;9.250;2023-03-04T02:46:55;32.50;;;17.63;;
2201;SDS011;1107;48.654;9.250;2023-03-04T02:49:23;49.08;;;20.42;;
2201;SDS011;1107;48.654;9.250;2023-03-04T02:51:52;45.42;;;21.60;;
2201;SDS011;1107;48.654;9.250;2023-03-04T02:54:24;44.67;;;21.77;;
2201;SDS011;1107;48.654;9.250;2023-03-04T02:56:53;51.15;;;21.60;;
2201;SDS011;1107;48.654;9.250;2023-03-04T02:59:21;42.40;;;20.33;;
2201;SDS011;1107;48.654;9.250;2023-03-04T03:01:50;35.08;;;19.52;;
2201;SDS011;1107;48.654;9.250;2023-03-04T03:04:17;38.58;;;20.05;;
2201;SDS011;1107;48.654;9.250;2023-03-04T03:06:45;46.33;;;20.20;;
2201;SDS011;1107;48.654;9.250;2023-03-04T03:09:12;41.60;;;19.67;;
2201;SDS011;1107;48.654;9.250;2023-03-04T03:11:40;39.60;;;20.77;;
2201;SDS011;1107;48.654;9.250;2023-03-04T03:14:07;45.15;;;21.20;;
2201;SDS011;1107;48.654;9.250;2023-03-04T03:16:34;50.08;;;21.35;;
2201;SDS011;1107;48.654;9.250;2023-03-04T03:19:02;52.75;;;21.50;;
2201;SDS011;1107;48.654;9.250;2023-03-04T03:21:29;44.80;;;20.75;;
2201;SDS011;1107;48.654;9.250;2023-03-04T03:23:56;40.95;;;21.17;;
2201;SDS011;1107;48.654;9.250;2023-03-04T03:26:23;47.08;;;21.38;;
2201;SDS011;1107;48.654;9.250;2023-03-04T03:28:50;46.08;;;21.25;;
2201;SDS011;1107;48.654;9.250;2023-03-04T03:31:17;39.53;;;20.25;;
2201;SDS011;1107;48.654;9.250;2023-03-04T03:33:44;62.85;;;22.83;;
2201;SDS011;1107;48.654;9.250;2023-03-04T03:36:13;37.88;;;18.85;;
2201;SDS011;1107;48.654;9.250;2023-03-04T03:38:40;51.88;;;20.98;;
2201;SDS011;1107;48.654;9.250;2023-03-04T03:41:07;49.45;;;19.83;;
2201;SDS011;1107;48.654;9.250;2023-03-04T03:43:34;40.60;;;20.20;;
2201;SDS011;1107;48.654;9.250;2023-03-04T03:46:01;41.00;;;21.15;;
2201;SDS011;1107;48.654;9.250;2023-03-04T03:48:27;49.28;;;20.15;;
2201;SDS011;1107;48.654;9.250;2023-03-04T03:50:54;43.92;;;20.30;;
2201;SDS011;1107;48.654;9.250;2023-03-04T03:53:23;46.95;;;20.23;;
2201;SDS011;1107;48.654;9.250;2023-03-04T03:55:50;46.38;;;21.02;;
2201;SDS011;1107;48.654;9.250;2023-03-04T03:58:16;40.83;;;19.58;;
2201;SDS011;1107;48.654;9.250;2023-03-04T04:00:43;44.30;;;20.70;;
2201;SDS011;1107;48.654;9.250;2023-03-04T04:03:11;41.10;;;19.80;;
2201;SDS011;1107;48.654;9.250;2023-03-04T04:05:40;39.75;;;20.15;;
2201;SDS011;1107;48.654;9.250;2023-03-04T04:08:08;38.72;;;20.13;;
2201;SDS011;1107;48.654;9.250;2023-03-04T04:10:39;44.95;;;20.40;;
2201;SDS011;1107;48.654;9.250;2023-03-04T04:13:06;44.80;;;20.90;;
2201;SDS011;1107;48.654;9.250;2023-03-04T04:15:34;50.05;;;21.25;;
2201;SDS011;1107;48.654;9.250;2023-03-04T04:18:02;38.20;;;19.15;;
2201;SDS011;1107;48.654;9.250;2023-03-04T04:20:29;46.85;;;22.10;;
2201;SDS011;1107;48.654;9.250;2023-03-04T04:22:56;41.92;;;20.15;;
2201;SDS011;1107;48.654;9.250;2023-03-04T04:25:23;53.22;;;20.85;;
2201;SDS011;1107;48.654;9.250;2023-03-04T04:27:52;47.33;;;21.65;;
2201;SDS011;1107;48.654;9.250;2023-03-04T04:30:19;61.10;;;20.92;;
2201;SDS011;1107;48.654;9.250;2023-03-04T04:32:46;39.55;;;19.83;;
2201;SDS011;1107;48.654;9.250;2023-03-04T04:35:13;39.97;;;20.58;;
2201;SDS011;1107;48.654;9.250;2023-03-04T04:37:40;45.78;;;18.58;;
2201;SDS011;1107;48.654;9.250;2023-03-04T04:40:07;50.17;;;18.67;;
2201;SDS011;1107;48.654;9.250;2023-03-04T04:42:35;40.97;;;18.38;;
2201;SDS011;1107;48.654;9.250;2023-03-04T04:45:03;38.97;;;19.25;;
2201;SDS011;1107;48.654;9.250;2023-03-04T04:47:31;36.42;;;18.33;;
2201;SDS011;1107;48.654;9.250;2023-03-04T04:49:58;38.42;;;16.80;;
2201;SDS011;1107;48.654;9.250;2023-03-04T04:52:25;38.42;;;18.40;;
2201;SDS011;1107;48.654;9.250;2023-03-04T04:54:52;32.10;;;17.88;;
2201;SDS011;1107;48.654;9.250;2023-03-04T04:57:19;37.95;;;18.55;;
2201;SDS011;1107;48.654;9.250;2023-03-04T04:59:46;37.88;;;18.67;;
2201;SDS011;1107;48.654;9.250;2023-03-04T05:02:14;42.05;;;17.60;;
2201;SDS011;1107;48.654;9.250;2023-03-04T05:04:41;33.90;;;17.63;;
2201;SDS011;1107;48.654;9.250;2023-03-04T05:07:08;41.30;;;17.92;;
2201;SDS011;1107;48.654;9.250;2023-03-04T05:09:35;37.28;;;18.15;;
2201;SDS011;1107;48.654;9.250;2023-03-04T05:12:02;35.08;;;17.92;;
2201;SDS011;1107;48.654;9.250;2023-03-04T05:14:29;38.95;;;18.45;;
2201;SDS011;1107;48.654;9.250;2023-03-04T05:16:56;43.05;;;18.95;;
2201;SDS011;1107;48.654;9.250;2023-03-04T05:19:24;47.33;;;17.98;;
2201;SDS011;1107;48.654;9.250;2023-03-04T05:21:51;33.80;;;17.10;;
2201;SDS011;1107;48.654;9.250;2023-03-04T05:24:18;43.17;;;18.27;;
2201;SDS011;1107;48.654;9.250;2023-03-04T05:26:45;42.90;;;18.27;;
2201;SDS011;1107;48.654;9.250;2023-03-04T05:29:12;32.60;;;16.85;;
2201;SDS011;1107;48.654;9.250;2023-03-04T05:31:39;33.55;;;17.50;;
2201;SDS011;1107;48.654;9.250;2023-03-04T05:34:06;39.33;;;17.30;;
2201;SDS011;1107;48.654;9.250;2023-03-04T05:36:34;33.72;;;16.33;;
2201;SDS011;1107;48.654;9.250;2023-03-04T05:39:01;36.72;;;16.27;;
2201;SDS011;1107;48.654;9.250;2023-03-04T05:41:28;32.20;;;16.17;;
2201;SDS011;1107;48.654;9.250;2023-03-04T05:43:55;35.03;;;16.90;;
2201;SDS011;1107;48.654;9.250;2023-03-04T05:46:22;27.98;;;15.57;;
2201;SDS011;1107;48.654;9.250;2023-03-04T05:48:49;28.02;;;15.75;;
2201;SDS011;1107;48.654;9.250;2023-03-04T05:51:17;37.38;;;17.60;;
2201;SDS011;1107;48.654;9.250;2023-03-04T05:53:45;36.33;;;16.55;;
2201;SDS011;1107;48.654;9.250;2023-03-04T05:56:13;35.55;;;19.35;;
2201;SDS011;1107;48.654;9.250;2023-03-04T05:58:41;45.88;;;21.20;;
2201;SDS011;1107;48.654;9.250;2023-03-04T06:01:09;38.17;;;17.60;;
2201;SDS011;1107;48.654;9.250;2023-03-04T06:03:36;36.00;;;17.73;;
2201;SDS011;1107;48.654;9.250;2023-03-04T06:06:03;32.97;;;17.50;;
2201;SDS011;1107;48.654;9.250;2023-03-04T06:08:31;39.63;;;14.75;;
2201;SDS011;1107;48.654;9.250;2023-03-04T06:10:59;41.05;;;16.00;;
2201;SDS011;1107;48.654;9.250;2023-03-04T06:13:26;31.80;;;15.70;;
2201;SDS011;1107;48.654;9.250;2023-03-04T06:15:54;40.08;;;16.75;;
2201;SDS011;1107;48.654;9.250;2023-03-04T06:18:22;35.50;;;16.30;;
2201;SDS011;1107;48.654;9.250;2023-03-04T06:20:50;60.25;;;15.77;;
2201;SDS011;1107;48.654;9.250;2023-03-04T06:23:20;34.47;;;17.73;;
2201;SDS011;1107;48.654;9.250;2023-03-04T06:25:50;35.45;;;17.23;;
2201;SDS011;1107;48.654;9.250;2023-03-04T06:28:19;36.85;;;17.73;;
2201;SDS011;1107;48.654;9.250;2023-03-04T06:30:46;34.95;;;17.08;;
2201;SDS011;1107;48.654;9.250;2023-03-04T06:33:13;33.58;;;17.30;;
2201;SDS011;1107;48.654;9.250;2023-03-04T06:35:40;31.30;;;16.77;;
2201;SDS011;1107;48.654;9.250;2023-03-04T06:38:07;36.53;;;18.30;;
2201;SDS011;1107;48.654;9.250;2023-03-04T06:40:34;38.72;;;18.98;;
2201;SDS011;1107;48.654;9.250;2023-03-04T06:43:01;34.50;;;16.45;;
2201;SDS011;1107;48.654;9.250;2023-03-04T06:45:29;29.48;;;16.33;;
2201;SDS011;1107;48.654;9.250;2023-03-04T06:47:56;34.70;;;18.35;;
2201;SDS011;1107;48.654;9.250;2023-03-04T06:50:23;32.75;;;16.80;;
2201;SDS011;1107;48.654;9.250;2023-03-04T06:52:50;35.47;;;15.60;;
2201;SDS011;1107;48.654;9.250;2023-03-04T06:55:17;30.88;;;16.52;;
2201;SDS011;1107;48.654;9.250;2023-03-04T06:57:44;36.80;;;16.80;;
2201;SDS011;1107;48.654;9.250;2023-03-04T07:00:11;30.48;;;15.98;;
2201;SDS011;1107;48.654;9.250;2023-03-04T07:02:40;27.92;;;15.95;;
2201;SDS011;1107;48.654;9.250;2023-03-04T07:05:08;27.20;;;15.63;;
2201;SDS011;1107;48.654;9.250;2023-03-04T07:07:35;30.30;;;15.75;;
2201;SDS011;1107;48.654;9.250;2023-03-04T07:10:02;26.13;;;15.98;;
2201;SDS011;1107;48.654;9.250;2023-03-04T07:12:30;29.30;;;16.17;;
2201;SDS011;1107;48.654;9.250;2023-03-04T07:14:57;32.35;;;16.33;;
2201;SDS011;1107;48.654;9.250;2023-03-04T07:17:24;24.42;;;14.68;;
2201;SDS011;1107;48.654;9.250;2023-03-04T07:19:52;30.65;;;15.63;;
2201;SDS011;1107;48.654;9.250;2023-03-04T07:22:19;31.85;;;17.55;;
2201;SDS011;1107;48.654;9.250;2023-03-04T07:24:46;32.42;;;16.63;;
2201;SDS011;1107;48.654;9.250;2023-03-04T07:27:13;34.00;;;15.15;;
2201;SDS011;1107;48.654;9.250;2023-03-04T07:29:40;27.35;;;15.63;;
2201;SDS011;1107;48.654;9.250;2023-03-04T07:32:07;36.83;;;16.23;;
2201;SDS011;1107;48.654;9.250;2023-03-04T07:34:35;30.63;;;16.80;;
2201;SDS011;1107;48.654;9.250;2023-03-04T07:37:03;31.30;;;16.85;;
2201;SDS011;1107;48.654;9.250;2023-03-04T07:39:30;27.83;;;15.65;;
2201;SDS011;1107;48.654;9.250;2023-03-04T07:41:57;27.15;;;15.60;;
2201;SDS011;1107;48.654;9.250;2023-03-04T07:44:24;26.13;;;15.55;;
2201;SDS011;1107;48.654;9.250;2023-03-04T07:46:51;34.53;;;17.40;;
2201;SDS011;1107;48.654;9.250;2023-03-04T07:49:18;33.60;;;16.10;;
2201;SDS011;1107;48.654;9.250;2023-03-04T07:51:45;33.95;;;15.63;;
2201;SDS011;1107;48.654;9.250;2023-03-04T07:54:13;33.65;;;15.38;;
2201;SDS011;1107;48.654;9.250;2023-03-04T07:56:40;28.55;;;15.73;;
2201;SDS011;1107;48.654;9.250;2023-03-04T07:59:07;31.85;;;16.67;;
2201;SDS011;1107;48.654;9.250;2023-03-04T08:01:34;33.72;;;16.42;;
2201;SDS011;1107;48.654;9.250;2023-03-04T08:04:03;25.48;;;14.32;;
2201;SDS011;1107;48.654;9.250;2023-03-04T08:06:31;28.83;;;15.55;;
2201;SDS011;1107;48.654;9.250;2023-03-04T08:08:59;26.20;;;14.98;;
2201;SDS011;1107;48.654;9.250;2023-03-04T08:11:29;36.90;;;18.33;;
2201;SDS011;1107;48.654;9.250;2023-03-04T08:13:56;36.83;;;16.95;;
2201;SDS011;1107;48.654;9.250;2023-03-04T08:16:23;27.42;;;16.33;;
2201;SDS011;1107;48.654;9.250;2023-03-04T08:18:52;36.47;;;17.50;;
2201;SDS011;1107;48.654;9.250;2023-03-04T08:21:22;36.42;;;16.65;;
2201;SDS011;1107;48.654;9.250;2023-03-04T08:23:50;31.38;;;15.20;;
2201;SDS011;1107;48.654;9.250;2023-03-04T08:26:18;31.85;;;15.82;;
2201;SDS011;1107;48.654;9.250;2023-03-04T08:28:48;30.00;;;13.80;;
2201;SDS011;1107;48.654;9.250;2023-03-04T08:31:16;31.73;;;16.40;;
2201;SDS011;1107;48.654;9.250;2023-03-04T08:33:43;29.42;;;14.40;;
2201;SDS011;1107;48.654;9.250;2023-03-04T08:36:11;31.08;;;14.98;;
2201;SDS011;1107;48.654;9.250;2023-03-04T08:38:38;28.38;;;15.63;;
2201;SDS011;1107;48.654;9.250;2023-03-04T08:41:05;26.92;;;14.75;;
2201;SDS011;1107;48.654;9.250;2023-03-04T08:43:32;25.92;;;14.13;;
2201;SDS011;1107;48.654;9.250;2023-03-04T08:46:01;25.92;;;14.82;;
2201;SDS011;1107;48.654;9.250;2023-03-04T08:48:28;29.92;;;13.60;;
2201;SDS011;1107;48.654;9.250;2023-03-04T08:50:55;26.88;;;15.27;;
2201;SDS011;1107;48.654;9.250;2023-03-04T08:53:23;24.02;;;13.20;;
2201;SDS011;1107;48.654;9.250;2023-03-04T08:55:51;32.67;;;15.80;;
2201;SDS011;1107;48.654;9.250;2023-03-04T08:58:18;24.58;;;13.73;;
2201;SDS011;1107;48.654;9.250;2023-03-04T09:00:45;19.30;;;13.38;;
2201;SDS011;1107;48.654;9.250;2023-03-04T09:03:17;20.15;;;12.43;;
2201;SDS011;1107;48.654;9.250;2023-03-04T09:05:44;17.45;;;10.45;;
2201;SDS011;1107;48.654;9.250;2023-03-04T09:08:12;21.75;;;11.75;;
2201;SDS011;1107;48.654;9.250;2023-03-04T09:10:39;23.40;;;12.35;;
2201;SDS011;1107;48.654;9.250;2023-03-04T09:13:06;22.73;;;12.23;;
2201;SDS011;1107;48.654;9.250;2023-03-04T09:15:35;16.70;;;11.05;;
2201;SDS011;1107;48.654;9.250;2023-03-04T09:18:03;27.40;;;13.73;;
2201;SDS011;1107;48.654;9.250;2023-03-04T09:20:32;27.90;;;13.93;;
2201;SDS011;1107;48.654;9.250;2023-03-04T09:22:59;23.05;;;11.85;;
2201;SDS011;1107;48.654;9.250;2023-03-04T09:25:26;31.95;;;12.15;;
2201;SDS011;1107;48.654;9.250;2023-03-04T09:27:53;24.08;;;13.30;;
2201;SDS011;1107;48.654;9.250;2023-03-04T09:30:20;25.95;;;13.20;;
2201;SDS011;1107;48.654;9.250;2023-03-04T09:32:47;20.52;;;12.15;;
2201;SDS011;1107;48.654;9.250;2023-03-04T09:35:15;37.25;;;13.98;;
2201;SDS011;1107;48.654;9.250;2023-03-04T09:37:43;22.20;;;12.70;;
2201;SDS011;1107;48.654;9.250;2023-03-04T09:40:11;30.88;;;13.55;;
2201;SDS011;1107;48.654;9.250;2023-03-04T09:42:44;19.88;;;11.35;;
2201;SDS011;1107;48.654;9.250;2023-03-04T09:45:15;23.40;;;13.50;;
2201;SDS011;1107;48.654;9.250;2023-03-04T09:47:45;27.48;;;13.88;;
2201;SDS011;1107;48.654;9.250;2023-03-04T09:50:13;25.58;;;14.10;;
2201;SDS011;1107;48.654;9.250;2023-03-04T09:52:47;25.25;;;14.40;;
2201;SDS011;1107;48.654;9.250;2023-03-04T09:55:27;25.42;;;14.55;;
2201;SDS011;1107;48.654;9.250;2023-03-04T09:57:59;30.35;;;16.30;;
2201;SDS011;1107;48.654;9.250;2023-03-04T10:00:32;22.85;;;13.23;;
2201;SDS011;1107;48.654;9.250;2023-03-04T10:03:05;32.33;;;14.57;;
2201;SDS011;1107;48.654;9.250;2023-03-04T10:05:41;31.95;;;15.20;;
2201;SDS011;1107;48.654;9.250;2023-03-04T10:08:23;28.60;;;14.35;;
2201;SDS011;1107;48.654;9.250;2023-03-04T10:10:58;40.47;;;13.80;;
2201;SDS011;1107;48.654;9.250;2023-03-04T10:13:29;19.67;;;13.25;;
2201;SDS011;1107;48.654;9.250;2023-03-04T10:16:01;23.92;;;13.65;;
2201;SDS011;1107;48.654;9.250;2023-03-04T10:18:31;33.33;;;13.95;;
2201;SDS011;1107;48.654;9.250;2023-03-04T10:21:03;33.33;;;15.10;;
2201;SDS011;1107;48.654;9.250;2023-03-04T10:23:37;27.73;;;15.40;;
2201;SDS011;1107;48.654;9.250;2023-03-04T10:26:09;20.48;;;13.05;;
2201;SDS011;1107;48.654;9.250;2023-03-04T10:28:38;34.25;;;15.48;;
2201;SDS011;1107;48.654;9.250;2023-03-04T10:31:08;32.20;;;14.18;;
2201;SDS011;1107;48.654;9.250;2023-03-04T10:33:41;34.90;;;15.50;;
2201;SDS011;1107;48.654;9.250;2023-03-04T10:36:15;25.25;;;14.00;;
2201;SDS011;1107;48.654;9.250;2023-03-04T10:39:01;25.80;;;14.23;;
2201;SDS011;1107;48.654;9.250;2023-03-04T10:41:31;29.10;;;15.32;;
2201;SDS011;1107;48.654;9.250;2023-03-04T10:44:03;23.33;;;14.82;;
2201;SDS011;1107;48.654;9.250;2023-03-04T10:46:41;28.88;;;14.48;;
2201;SDS011;1107;48.654;9.250;2023-03-04T10:49:10;27.75;;;15.18;;
2201;SDS011;1107;48.654;9.250;2023-03-04T10:51:40;33.17;;;18.50;;
2201;SDS011;1107;48.654;9.250;2023-03-04T10:54:17;32.85;;;16.30;;
2201;SDS011;1107;48.654;9.250;2023-03-04T10:56:57;35.97;;;17.17;;
2201;SDS011;1107;48.654;9.250;2023-03-04T10:59:30;38.00;;;19.65;;
2201;SDS011;1107;48.654;9.250;2023-03-04T11:02:01;37.78;;;17.58;;
2201;SDS011;1107;48.654;9.250;2023-03-04T11:04:38;37.95;;;19.38;;
2201;SDS011;1107;48.654;9.250;2023-03-04T11:07:07;46.70;;;22.85;;
2201;SDS011;1107;48.654;9.250;2023-03-04T11:09:36;34.88;;;20.00;;
2201;SDS011;1107;48.654;9.250;2023-03-04T11:12:05;36.83;;;19.48;;
2201;SDS011;1107;48.654;9.250;2023-03-04T11:14:37;35.47;;;16.60;;
2201;SDS011;1107;48.654;9.250;2023-03-04T11:17:15;30.60;;;16.90;;
2201;SDS011;1107;48.654;9.250;2023-03-04T11:19:46;31.88;;;17.60;;
2201;SDS011;1107;48.654;9.250;2023-03-04T11:22:16;23.88;;;15.48;;
2201;SDS011;1107;48.654;9.250;2023-03-04T11:24:49;35.13;;;19.30;;
2201;SDS011;1107;48.654;9.250;2023-03-04T11:27:23;33.53;;;18.90;;
2201;SDS011;1107;48.654;9.250;2023-03-04T11:29:57;28.58;;;17.55;;
2201;SDS011;1107;48.654;9.250;2023-03-04T11:32:30;32.22;;;18.25;;
2201;SDS011;1107;48.654;9.250;2023-03-04T11:35:04;32.78;;;18.05;;
2201;SDS011;1107;48.654;9.250;2023-03-04T11:37:34;32.63;;;17.85;;
2201;SDS011;1107;48.654;9.250;2023-03-04T11:40:07;37.95;;;18.08;;
2201;SDS011;1107;48.654;9.250;2023-03-04T11:42:39;32.85;;;17.75;;
2201;SDS011;1107;48.654;9.250;2023-03-04T11:45:11;31.05;;;17.55;;
2201;SDS011;1107;48.654;9.250;2023-03-04T11:47:48;35.28;;;20.27;;
2201;SDS011;1107;48.654;9.250;2023-03-04T11:50:26;30.25;;;18.02;;
2201;SDS011;1107;48.654;9.250;2023-03-04T11:53:02;34.00;;;17.63;;
2201;SDS011;1107;48.654;9.250;2023-03-04T11:55:48;34.05;;;19.05;;
2201;SDS011;1107;48.654;9.250;2023-03-04T12:01:33;32.15;;;17.25;;
2201;SDS011;1107;48.654;9.250;2023-03-04T12:04:27;35.78;;;20.20;;
2201;SDS011;1107;48.654;9.250;2023-03-04T12:07:08;33.00;;;18.83;;
2201;SDS011;1107;48.654;9.250;2023-03-04T12:09:48;33.20;;;19.27;;
2201;SDS011;1107;48.654;9.250;2023-03-04T12:12:32;45.08;;;22.30;;
2201;SDS011;1107;48.654;9.250;2023-03-04T12:15:12;41.35;;;22.88;;
2201;SDS011;1107;48.654;9.250;2023-03-04T12:17:55;48.42;;;22.52;;
2201;SDS011;1107;48.654;9.250;2023-03-04T12:20:36;41.20;;;22.75;;
2201;SDS011;1107;48.654;9.250;2023-03-04T12:23:33;43.42;;;21.13;;
2201;SDS011;1107;48.654;9.250;2023-03-04T12:26:17;42.75;;;22.98;;
2201;SDS011;1107;48.654;9.250;2023-03-04T12:28:53;41.28;;;23.27;;
2201;SDS011;1107;48.654;9.250;2023-03-04T12:34:21;42.25;;;21.88;;
2201;SDS011;1107;48.654;9.250;2023-03-04T12:36:59;44.20;;;21.88;;
2201;SDS011;1107;48.654;9.250;2023-03-04T12:39:47;37.47;;;21.30;;
2201;SDS011;1107;48.654;9.250;2023-03-04T12:42:26;41.08;;;21.20;;
2201;SDS011;1107;48.654;9.250;2023-03-04T12:45:02;38.55;;;21.85;;
2201;SDS011;1107;48.654;9.250;2023-03-04T12:47:43;44.30;;;21.77;;
2201;SDS011;1107;48.654;9.250;2023-03-04T12:50:23;39.03;;;21.25;;
2201;SDS011;1107;48.654;9.250;2023-03-04T12:52:58;32.05;;;20.42;;
2201;SDS011;1107;48.654;9.250;2023-03-04T12:55:35;38.35;;;21.27;;
2201;SDS011;1107;48.654;9.250;2023-03-04T12:58:03;40.38;;;21.42;;
2201;SDS011;1107;48.654;9.250;2023-03-04T13:00:38;37.65;;;21.75;;
2201;SDS011;1107;48.654;9.250;2023-03-04T13:03:13;50.15;;;23.13;;
2201;SDS011;1107;48.654;9.250;2023-03-04T13:08:38;35.13;;;20.55;;
2201;SDS011;1107;48.654;9.250;2023-03-04T13:11:37;35.80;;;21.33;;
2201;SDS011;1107;48.654;9.250;2023-03-04T13:14:21;47.77;;;23.13;;
2201;SDS011;1107;48.654;9.250;2023-03-04T13:16:54;37.87;;;21.60;;
2201;SDS011;1107;48.654;9.250;2023-03-04T13:36:06;34.07;;;22.30;;
2201;SDS011;1107;48.654;9.250;2023-03-04T13:38:56;36.10;;;23.13;;
2201;SDS011;1107;48.654;9.250;2023-03-04T13:41:28;37.30;;;25.00;;
2201;SDS011;1107;48.654;9.250;2023-03-04T13:43:57;45.20;;;27.60;;
2201;SDS011;1107;48.654;9.250;2023-03-04T13:46:28;37.50;;;25.10;;
2201;SDS011;1107;48.654;9.250;2023-03-04T13:49:06;38.33;;;24.17;;
2201;SDS011;1107;48.654;9.250;2023-03-04T13:51:42;45.33;;;24.83;;
2201;SDS011;1107;48.654;9.250;2023-03-04T13:54:13;38.30;;;24.60;;
2201;SDS011;1107;48.654;9.250;2023-03-04T13:56:43;40.00;;;23.80;;
2201;SDS011;1107;48.654;9.250;2023-03-04T13:59:20;37.33;;;22.77;;
2201;SDS011;1107;48.654;9.250;2023-03-04T14:04:32;36.60;;;23.27;;
2201;SDS011;1107;48.654;9.250;2023-03-04T14:09:30;41.10;;;21.87;;
2201;SDS011;1107;48.654;9.250;2023-03-04T14:11:58;43.10;;;22.73;;
2201;SDS011;1107;48.654;9.250;2023-03-04T14:14:29;47.87;;;23.33;;
2201;SDS011;1107;48.654;9.250;2023-03-04T14:17:02;43.60;;;25.10;;
2201;SDS011;1107;48.654;9.250;2023-03-04T14:19:31;41.83;;;24.00;;
2201;SDS011;1107;48.654;9.250;2023-03-04T14:22:16;46.80;;;23.90;;
2201;SDS011;1107;48.654;9.250;2023-03-04T14:24:54;38.13;;;20.97;;
2201;SDS011;1107;48.654;9.250;2023-03-04T14:27:21;43.20;;;23.60;;
2201;SDS011;1107;48.654;9.250;2023-03-04T14:29:53;38.07;;;22.43;;
2201;SDS011;1107;48.654;9.250;2023-03-04T14:32:21;41.00;;;23.02;;
2201;SDS011;1107;48.654;9.250;2023-03-04T14:34:49;41.90;;;20.23;;
2201;SDS011;1107;48.654;9.250;2023-03-04T14:37:20;40.78;;;20.65;;
2201;SDS011;1107;48.654;9.250;2023-03-04T14:39:49;40.03;;;21.25;;
2201;SDS011;1107;48.654;9.250;2023-03-04T14:42:21;39.95;;;20.70;;
2201;SDS011;1107;48.654;9.250;2023-03-04T14:44:51;43.45;;;20.30;;
2201;SDS011;1107;48.654;9.250;2023-03-04T14:47:32;43.42;;;21.70;;
2201;SDS011;1107;48.654;9.250;2023-03-04T14:50:03;37.17;;;16.90;;
2201;SDS011;1107;48.654;9.250;2023-03-04T14:52:35;26.80;;;16.25;;
2201;SDS011;1107;48.654;9.250;2023-03-04T14:55:14;31.38;;;16.13;;
2201;SDS011;1107;48.654;9.250;2023-03-04T14:57:46;31.45;;;16.90;;
2201;SDS011;1107;48.654;9.250;2023-03-04T15:00:25;37.10;;;16.70;;
2201;SDS011;1107;48.654;9.250;2023-03-04T15:02:56;31.60;;;17.63;;
2201;SDS011;1107;48.654;9.250;2023-03-04T15:05:26;30.50;;;15.32;;
2201;SDS011;1107;48.654;9.250;2023-03-04T15:07:56;42.25;;;16.63;;
2201;SDS011;1107;48.654;9.250;2023-03-04T15:10:26;26.90;;;14.05;;
2201;SDS011;1107;48.654;9.250;2023-03-04T15:12:55;17.35;;;13.18;;
2201;SDS011;1107;48.654;9.250;2023-03-04T15:15:38;24.02;;;14.10;;
2201;SDS011;1107;48.654;9.250;2023-03-04T15:18:14;59.58;;;27.42;;
2201;SDS011;1107;48.654;9.250;2023-03-04T15:20:51;33.13;;;16.15;;
2201;SDS011;1107;48.654;9.250;2023-03-04T15:23:23;30.70;;;15.95;;
2201;SDS011;1107;48.654;9.250;2023-03-04T15:25:51;37.28;;;17.00;;
2201;SDS011;1107;48.654;9.250;2023-03-04T15:28:20;31.92;;;17.60;;
2201;SDS011;1107;48.654;9.250;2023-03-04T15:30:48;40.28;;;18.83;;
2201;SDS011;1107;48.654;9.250;2023-03-04T15:33:15;29.45;;;15.57;;
2201;SDS011;1107;48.654;9.250;2023-03-04T15:35:45;34.28;;;17.10;;